CYMX

Montreal International (Mirabel) Airport

Montréal, Quebec, Canada
METAR CYMX 211300Z 00000KT 35SM SCT250 23/17 A3011 RMK CI4 SLP198 DENSITY ALT 1100FT
Observed Flight Rules
Jul-21 @ 13:00 UTC (51 minutes ago) Visual Flight Rules
Visibility Clouds
35 miles
  • Scattered at 25,000' AGL
Temperatures Readings
Current 23°C / 73°F
Dewpoint 17°C / 63°F
Humidity 69%
Altimeter 30.11" Hg
Pressure 1019.8 hPa
Elevation 82
METAR CYMX 211300Z 00000KT 35SM SCT250 23/17 A3011 RMK CI4 SLP198 DENSITY ALT 1100FT
Observed Flight Rules
Jul-21 @ 13:00 UTC
(51 minutes ago)
VFR
Clouds
  • Scattered at 25,000' AGL
Temperature Dewpoint
23°C / 73°F 17°C / 63°F
Humidity Altimeter Pressure
69% 30.11" Hg 1019.8 hPa